KCOF/COF METAR and TAF weather

Enter ICAO airport designator
Station Type Date Time Source
KCOF METAR 2021/07/29 18:56 UTC NOAA

KCOF 291856Z AUTO 11010KT 10SM CLR 31/27 A2999 RMK AO2 LTG DSNT N SLP160 T03130267 $


Station Type Date Time Source
KCOF Decoded METAR 2021/07/29 18:56 UTC NOAA

Cocoa / Patrick Air Force Base, FL, United States (KCOF) 28-14N 080-36W 3M
Jul 29, 2021 - 02:56 PM EDT / 2021.07.29 1856 UTC
Wind: from the ESE (110 degrees) at 12 MPH (10 KT):0
Visibility: 10 mile(s):0
Sky conditions: clear
Weather: Lightning observed
Temperature: 88.3 F (31.3 C)
Heat index: 104.7 F (40.4 C):1
Dew Point: 80.1 F (26.7 C)
Relative Humidity: 76%
Pressure (altimeter): 29.99 in. Hg (1015 hPa)
ob: KCOF 291856Z AUTO 11010KT 10SM CLR 31/27 A2999 RMK AO2 LTG DSNT N SLP160 T03130267
cycle: 19

Station Type Date Time Source
KCOF TAF 2021/07/29 18:09 UTC NOAA

TAF TAF KCOF 291800Z 2918/3024 13010KT 9999 VCTS SCT025CB BKN120 QNH2999INS
TEMPO 2918/2924 26012G22KT 4800 TSRA BKN025CB
BECMG 3002/3003 21006KT 9999 NSW SCT025 BKN100 QNH3000INS
BECMG 3012/3013 17010KT 9999 BKN025 BKN100 QNH3003INS
BECMG 3018/3019 17010KT 9999 VCTS BKN025CB BKN100 QNH3001INS
TEMPO 3019/3024 26012G22KT 4800 TSRA BKN025CB TX31/2918Z TN24/3010Z

Example: see airport list